sensor_id;sensor_type;location;lat;lon;timestamp;P1;durP1;ratioP1;P2;durP2;ratioP2
61407;SDS011;47274;43.054;25.146;2024-02-21T00:02:11;40.33;;;23.17;;
61407;SDS011;47274;43.054;25.146;2024-02-21T00:04:37;37.60;;;21.23;;
61407;SDS011;47274;43.054;25.146;2024-02-21T00:07:04;39.67;;;21.40;;
61407;SDS011;47274;43.054;25.146;2024-02-21T00:09:30;35.67;;;20.43;;
61407;SDS011;47274;43.054;25.146;2024-02-21T00:11:55;33.80;;;18.87;;
61407;SDS011;47274;43.054;25.146;2024-02-21T00:14:21;34.60;;;19.43;;
61407;SDS011;47274;43.054;25.146;2024-02-21T00:16:47;37.50;;;21.17;;
61407;SDS011;47274;43.054;25.146;2024-02-21T00:19:13;34.17;;;19.87;;
61407;SDS011;47274;43.054;25.146;2024-02-21T00:21:40;32.73;;;17.73;;
61407;SDS011;47274;43.054;25.146;2024-02-21T00:24:06;32.00;;;17.97;;
61407;SDS011;47274;43.054;25.146;2024-02-21T00:26:32;31.77;;;17.50;;
61407;SDS011;47274;43.054;25.146;2024-02-21T00:28:57;31.13;;;15.83;;
61407;SDS011;47274;43.054;25.146;2024-02-21T00:31:23;31.40;;;17.20;;
61407;SDS011;47274;43.054;25.146;2024-02-21T00:33:49;31.60;;;17.77;;
61407;SDS011;47274;43.054;25.146;2024-02-21T00:36:15;31.60;;;16.77;;
61407;SDS011;47274;43.054;25.146;2024-02-21T00:38:41;30.63;;;16.37;;
61407;SDS011;47274;43.054;25.146;2024-02-21T00:41:07;32.10;;;16.50;;
61407;SDS011;47274;43.054;25.146;2024-02-21T00:43:33;30.03;;;16.83;;
61407;SDS011;47274;43.054;25.146;2024-02-21T00:45:59;31.60;;;16.50;;
61407;SDS011;47274;43.054;25.146;2024-02-21T00:48:24;34.83;;;18.40;;
61407;SDS011;47274;43.054;25.146;2024-02-21T00:50:50;30.83;;;16.50;;
61407;SDS011;47274;43.054;25.146;2024-02-21T00:53:16;31.17;;;16.60;;
61407;SDS011;47274;43.054;25.146;2024-02-21T00:55:41;29.67;;;16.13;;
61407;SDS011;47274;43.054;25.146;2024-02-21T00:58:08;32.13;;;18.03;;
61407;SDS011;47274;43.054;25.146;2024-02-21T01:00:34;37.37;;;19.63;;
61407;SDS011;47274;43.054;25.146;2024-02-21T01:03:00;32.07;;;17.63;;
61407;SDS011;47274;43.054;25.146;2024-02-21T01:05:25;37.53;;;19.73;;
61407;SDS011;47274;43.054;25.146;2024-02-21T01:07:52;31.90;;;17.13;;
61407;SDS011;47274;43.054;25.146;2024-02-21T01:10:18;30.53;;;15.77;;
61407;SDS011;47274;43.054;25.146;2024-02-21T01:12:44;30.67;;;16.13;;
61407;SDS011;47274;43.054;25.146;2024-02-21T01:15:09;34.17;;;18.17;;
61407;SDS011;47274;43.054;25.146;2024-02-21T01:17:37;31.23;;;16.00;;
61407;SDS011;47274;43.054;25.146;2024-02-21T01:20:03;29.83;;;16.57;;
61407;SDS011;47274;43.054;25.146;2024-02-21T01:22:30;31.77;;;16.80;;
61407;SDS011;47274;43.054;25.146;2024-02-21T01:24:56;29.73;;;14.77;;
61407;SDS011;47274;43.054;25.146;2024-02-21T01:27:22;30.77;;;16.13;;
61407;SDS011;47274;43.054;25.146;2024-02-21T01:29:48;26.37;;;13.63;;
61407;SDS011;47274;43.054;25.146;2024-02-21T01:32:15;27.97;;;14.90;;
61407;SDS011;47274;43.054;25.146;2024-02-21T01:34:41;27.03;;;13.90;;
61407;SDS011;47274;43.054;25.146;2024-02-21T01:37:07;29.27;;;14.97;;
61407;SDS011;47274;43.054;25.146;2024-02-21T01:39:33;29.37;;;14.67;;
61407;SDS011;47274;43.054;25.146;2024-02-21T01:41:59;31.83;;;16.57;;
61407;SDS011;47274;43.054;25.146;2024-02-21T01:44:25;29.13;;;15.80;;
61407;SDS011;47274;43.054;25.146;2024-02-21T01:46:51;31.60;;;16.47;;
61407;SDS011;47274;43.054;25.146;2024-02-21T01:49:18;33.63;;;18.60;;
61407;SDS011;47274;43.054;25.146;2024-02-21T01:51:47;33.53;;;16.60;;
61407;SDS011;47274;43.054;25.146;2024-02-21T01:54:14;35.10;;;18.27;;
61407;SDS011;47274;43.054;25.146;2024-02-21T01:56:41;34.63;;;17.97;;
61407;SDS011;47274;43.054;25.146;2024-02-21T01:59:08;33.93;;;18.77;;
61407;SDS011;47274;43.054;25.146;2024-02-21T02:01:34;34.97;;;19.83;;
61407;SDS011;47274;43.054;25.146;2024-02-21T02:04:00;35.87;;;19.43;;
61407;SDS011;47274;43.054;25.146;2024-02-21T02:06:26;32.17;;;17.50;;
61407;SDS011;47274;43.054;25.146;2024-02-21T02:08:52;35.80;;;19.53;;
61407;SDS011;47274;43.054;25.146;2024-02-21T02:11:18;36.80;;;20.30;;
61407;SDS011;47274;43.054;25.146;2024-02-21T02:13:44;40.33;;;22.37;;
61407;SDS011;47274;43.054;25.146;2024-02-21T02:16:09;35.40;;;18.90;;
61407;SDS011;47274;43.054;25.146;2024-02-21T02:18:35;39.10;;;21.13;;
61407;SDS011;47274;43.054;25.146;2024-02-21T02:21:01;33.90;;;19.23;;
61407;SDS011;47274;43.054;25.146;2024-02-21T02:23:32;35.37;;;19.43;;
61407;SDS011;47274;43.054;25.146;2024-02-21T02:25:58;35.87;;;19.73;;
61407;SDS011;47274;43.054;25.146;2024-02-21T02:28:26;37.27;;;19.47;;
61407;SDS011;47274;43.054;25.146;2024-02-21T02:30:52;33.47;;;18.37;;
61407;SDS011;47274;43.054;25.146;2024-02-21T02:33:18;33.53;;;18.47;;
61407;SDS011;47274;43.054;25.146;2024-02-21T02:35:47;33.00;;;18.97;;
61407;SDS011;47274;43.054;25.146;2024-02-21T02:38:12;38.83;;;21.03;;
61407;SDS011;47274;43.054;25.146;2024-02-21T02:40:38;34.93;;;18.67;;
61407;SDS011;47274;43.054;25.146;2024-02-21T02:43:05;33.73;;;19.03;;
61407;SDS011;47274;43.054;25.146;2024-02-21T02:45:31;32.87;;;18.47;;
61407;SDS011;47274;43.054;25.146;2024-02-21T02:47:58;32.30;;;17.43;;
61407;SDS011;47274;43.054;25.146;2024-02-21T02:50:24;31.67;;;16.93;;
61407;SDS011;47274;43.054;25.146;2024-02-21T02:52:51;31.03;;;17.30;;
61407;SDS011;47274;43.054;25.146;2024-02-21T02:55:17;33.00;;;17.60;;
61407;SDS011;47274;43.054;25.146;2024-02-21T02:57:43;29.93;;;16.73;;
61407;SDS011;47274;43.054;25.146;2024-02-21T03:00:13;31.90;;;17.00;;
61407;SDS011;47274;43.054;25.146;2024-02-21T03:02:41;29.40;;;15.83;;
61407;SDS011;47274;43.054;25.146;2024-02-21T03:05:12;28.80;;;15.77;;
61407;SDS011;47274;43.054;25.146;2024-02-21T03:07:42;31.23;;;17.20;;
61407;SDS011;47274;43.054;25.146;2024-02-21T03:10:08;30.10;;;15.37;;
61407;SDS011;47274;43.054;25.146;2024-02-21T03:12:35;31.77;;;15.37;;
61407;SDS011;47274;43.054;25.146;2024-02-21T03:15:00;29.47;;;15.83;;
61407;SDS011;47274;43.054;25.146;2024-02-21T03:17:27;30.10;;;15.60;;
61407;SDS011;47274;43.054;25.146;2024-02-21T03:19:53;30.30;;;16.43;;
61407;SDS011;47274;43.054;25.146;2024-02-21T03:22:20;31.30;;;15.90;;
61407;SDS011;47274;43.054;25.146;2024-02-21T03:24:47;29.57;;;15.13;;
61407;SDS011;47274;43.054;25.146;2024-02-21T03:27:13;28.90;;;15.37;;
61407;SDS011;47274;43.054;25.146;2024-02-21T03:29:39;28.93;;;15.70;;
61407;SDS011;47274;43.054;25.146;2024-02-21T03:32:04;28.87;;;15.23;;
61407;SDS011;47274;43.054;25.146;2024-02-21T03:34:30;28.47;;;14.50;;
61407;SDS011;47274;43.054;25.146;2024-02-21T03:36:56;28.30;;;14.97;;
61407;SDS011;47274;43.054;25.146;2024-02-21T03:39:22;31.33;;;16.37;;
61407;SDS011;47274;43.054;25.146;2024-02-21T03:41:47;30.07;;;16.10;;
61407;SDS011;47274;43.054;25.146;2024-02-21T03:44:13;28.77;;;15.03;;
61407;SDS011;47274;43.054;25.146;2024-02-21T03:46:39;31.33;;;15.47;;
61407;SDS011;47274;43.054;25.146;2024-02-21T03:49:04;28.37;;;14.73;;
61407;SDS011;47274;43.054;25.146;2024-02-21T03:51:30;27.63;;;14.70;;
61407;SDS011;47274;43.054;25.146;2024-02-21T03:53:56;29.43;;;15.37;;
61407;SDS011;47274;43.054;25.146;2024-02-21T03:56:22;28.80;;;15.90;;
61407;SDS011;47274;43.054;25.146;2024-02-21T03:58:48;29.03;;;16.20;;
61407;SDS011;47274;43.054;25.146;2024-02-21T04:01:15;30.87;;;15.67;;
61407;SDS011;47274;43.054;25.146;2024-02-21T04:03:41;30.93;;;16.60;;
61407;SDS011;47274;43.054;25.146;2024-02-21T04:06:08;29.87;;;15.77;;
61407;SDS011;47274;43.054;25.146;2024-02-21T04:08:35;28.13;;;15.67;;
61407;SDS011;47274;43.054;25.146;2024-02-21T04:11:00;32.83;;;17.57;;
61407;SDS011;47274;43.054;25.146;2024-02-21T04:13:26;30.17;;;15.97;;
61407;SDS011;47274;43.054;25.146;2024-02-21T04:15:52;29.43;;;14.83;;
61407;SDS011;47274;43.054;25.146;2024-02-21T04:18:18;29.43;;;16.50;;
61407;SDS011;47274;43.054;25.146;2024-02-21T04:20:43;30.50;;;15.77;;
61407;SDS011;47274;43.054;25.146;2024-02-21T04:23:09;29.63;;;15.90;;
61407;SDS011;47274;43.054;25.146;2024-02-21T04:25:35;29.87;;;14.57;;
61407;SDS011;47274;43.054;25.146;2024-02-21T04:28:01;29.70;;;14.97;;
61407;SDS011;47274;43.054;25.146;2024-02-21T04:30:28;29.03;;;15.27;;
61407;SDS011;47274;43.054;25.146;2024-02-21T04:32:53;29.53;;;16.30;;
61407;SDS011;47274;43.054;25.146;2024-02-21T04:35:19;28.43;;;14.80;;
61407;SDS011;47274;43.054;25.146;2024-02-21T04:37:45;29.40;;;14.43;;
61407;SDS011;47274;43.054;25.146;2024-02-21T04:40:11;27.43;;;14.23;;
61407;SDS011;47274;43.054;25.146;2024-02-21T04:42:37;28.33;;;15.13;;
61407;SDS011;47274;43.054;25.146;2024-02-21T04:45:03;26.47;;;14.10;;
61407;SDS011;47274;43.054;25.146;2024-02-21T04:47:29;26.63;;;14.03;;
61407;SDS011;47274;43.054;25.146;2024-02-21T04:49:55;28.30;;;14.40;;
61407;SDS011;47274;43.054;25.146;2024-02-21T04:52:20;29.73;;;15.23;;
61407;SDS011;47274;43.054;25.146;2024-02-21T04:54:46;28.30;;;15.23;;
61407;SDS011;47274;43.054;25.146;2024-02-21T04:57:12;27.87;;;14.07;;
61407;SDS011;47274;43.054;25.146;2024-02-21T04:59:45;31.67;;;15.57;;
61407;SDS011;47274;43.054;25.146;2024-02-21T05:02:15;28.27;;;15.70;;
61407;SDS011;47274;43.054;25.146;2024-02-21T05:04:44;28.47;;;15.53;;
61407;SDS011;47274;43.054;25.146;2024-02-21T05:07:10;29.57;;;15.63;;
61407;SDS011;47274;43.054;25.146;2024-02-21T05:09:37;27.13;;;14.50;;
61407;SDS011;47274;43.054;25.146;2024-02-21T05:12:03;26.87;;;14.63;;
61407;SDS011;47274;43.054;25.146;2024-02-21T05:14:29;27.33;;;13.13;;
61407;SDS011;47274;43.054;25.146;2024-02-21T05:16:55;26.60;;;14.80;;
61407;SDS011;47274;43.054;25.146;2024-02-21T05:19:21;25.20;;;13.03;;
61407;SDS011;47274;43.054;25.146;2024-02-21T05:21:46;24.40;;;12.87;;
61407;SDS011;47274;43.054;25.146;2024-02-21T05:24:12;27.73;;;14.60;;
61407;SDS011;47274;43.054;25.146;2024-02-21T05:26:38;25.80;;;13.47;;
61407;SDS011;47274;43.054;25.146;2024-02-21T05:29:03;25.77;;;13.83;;
61407;SDS011;47274;43.054;25.146;2024-02-21T05:34:17;27.40;;;13.53;;
61407;SDS011;47274;43.054;25.146;2024-02-21T05:36:43;24.57;;;13.73;;
61407;SDS011;47274;43.054;25.146;2024-02-21T05:39:09;24.83;;;13.60;;
61407;SDS011;47274;43.054;25.146;2024-02-21T05:41:35;26.50;;;14.00;;
61407;SDS011;47274;43.054;25.146;2024-02-21T05:44:01;26.53;;;13.33;;
61407;SDS011;47274;43.054;25.146;2024-02-21T05:46:27;26.03;;;13.80;;
61407;SDS011;47274;43.054;25.146;2024-02-21T05:48:53;25.67;;;13.70;;
61407;SDS011;47274;43.054;25.146;2024-02-21T05:51:18;25.77;;;14.00;;
61407;SDS011;47274;43.054;25.146;2024-02-21T05:53:44;27.63;;;14.57;;
61407;SDS011;47274;43.054;25.146;2024-02-21T05:56:13;25.20;;;13.67;;
61407;SDS011;47274;43.054;25.146;2024-02-21T05:58:39;26.80;;;14.20;;
61407;SDS011;47274;43.054;25.146;2024-02-21T06:01:06;26.97;;;14.63;;
61407;SDS011;47274;43.054;25.146;2024-02-21T06:03:33;26.63;;;14.03;;
61407;SDS011;47274;43.054;25.146;2024-02-21T06:06:00;28.13;;;14.63;;
61407;SDS011;47274;43.054;25.146;2024-02-21T06:08:26;28.13;;;15.03;;
61407;SDS011;47274;43.054;25.146;2024-02-21T06:10:52;32.67;;;18.13;;
61407;SDS011;47274;43.054;25.146;2024-02-21T06:13:28;34.63;;;20.00;;
61407;SDS011;47274;43.054;25.146;2024-02-21T06:15:54;31.63;;;17.23;;
61407;SDS011;47274;43.054;25.146;2024-02-21T06:18:20;37.90;;;20.70;;
61407;SDS011;47274;43.054;25.146;2024-02-21T06:20:46;34.13;;;19.90;;
61407;SDS011;47274;43.054;25.146;2024-02-21T06:23:12;35.10;;;19.87;;
61407;SDS011;47274;43.054;25.146;2024-02-21T06:25:41;34.03;;;18.70;;
61407;SDS011;47274;43.054;25.146;2024-02-21T06:28:06;34.43;;;19.73;;
61407;SDS011;47274;43.054;25.146;2024-02-21T06:30:32;34.53;;;19.23;;
61407;SDS011;47274;43.054;25.146;2024-02-21T06:32:58;34.77;;;19.83;;
61407;SDS011;47274;43.054;25.146;2024-02-21T06:35:24;35.97;;;18.77;;
61407;SDS011;47274;43.054;25.146;2024-02-21T06:37:50;34.83;;;19.43;;
61407;SDS011;47274;43.054;25.146;2024-02-21T06:40:17;35.80;;;19.23;;
61407;SDS011;47274;43.054;25.146;2024-02-21T06:42:47;33.83;;;19.07;;
61407;SDS011;47274;43.054;25.146;2024-02-21T06:45:12;32.83;;;18.77;;
61407;SDS011;47274;43.054;25.146;2024-02-21T06:47:38;31.43;;;17.40;;
61407;SDS011;47274;43.054;25.146;2024-02-21T06:50:04;31.47;;;17.80;;
61407;SDS011;47274;43.054;25.146;2024-02-21T06:52:30;32.07;;;18.57;;
61407;SDS011;47274;43.054;25.146;2024-02-21T06:54:56;32.70;;;17.20;;
61407;SDS011;47274;43.054;25.146;2024-02-21T06:57:22;33.00;;;17.07;;
61407;SDS011;47274;43.054;25.146;2024-02-21T06:59:48;32.50;;;16.80;;
61407;SDS011;47274;43.054;25.146;2024-02-21T07:02:13;28.70;;;15.35;;
61407;SDS011;47274;43.054;25.146;2024-02-21T07:04:39;27.95;;;14.88;;
61407;SDS011;47274;43.054;25.146;2024-02-21T07:07:05;26.33;;;14.20;;
61407;SDS011;47274;43.054;25.146;2024-02-21T07:09:31;26.67;;;13.75;;
61407;SDS011;47274;43.054;25.146;2024-02-21T07:11:58;25.50;;;13.98;;
61407;SDS011;47274;43.054;25.146;2024-02-21T07:14:24;25.20;;;13.25;;
61407;SDS011;47274;43.054;25.146;2024-02-21T07:16:51;23.90;;;12.45;;
61407;SDS011;47274;43.054;25.146;2024-02-21T07:19:16;23.65;;;13.23;;
61407;SDS011;47274;43.054;25.146;2024-02-21T07:21:42;23.73;;;13.02;;
61407;SDS011;47274;43.054;25.146;2024-02-21T07:24:08;23.23;;;12.60;;
61407;SDS011;47274;43.054;25.146;2024-02-21T07:26:34;22.95;;;12.35;;
61407;SDS011;47274;43.054;25.146;2024-02-21T07:29:00;21.63;;;11.55;;
61407;SDS011;47274;43.054;25.146;2024-02-21T07:31:28;19.75;;;10.57;;
61407;SDS011;47274;43.054;25.146;2024-02-21T07:33:54;21.67;;;11.70;;
61407;SDS011;47274;43.054;25.146;2024-02-21T07:36:29;21.63;;;11.43;;
61407;SDS011;47274;43.054;25.146;2024-02-21T07:38:55;22.52;;;12.35;;
61407;SDS011;47274;43.054;25.146;2024-02-21T07:41:21;23.23;;;11.60;;
61407;SDS011;47274;43.054;25.146;2024-02-21T07:43:47;22.02;;;11.13;;
61407;SDS011;47274;43.054;25.146;2024-02-21T07:46:14;20.73;;;11.32;;
61407;SDS011;47274;43.054;25.146;2024-02-21T07:48:39;19.58;;;9.73;;
61407;SDS011;47274;43.054;25.146;2024-02-21T07:51:05;19.48;;;10.32;;
61407;SDS011;47274;43.054;25.146;2024-02-21T07:53:31;19.98;;;10.40;;
61407;SDS011;47274;43.054;25.146;2024-02-21T07:55:57;19.95;;;10.10;;
61407;SDS011;47274;43.054;25.146;2024-02-21T07:58:22;19.17;;;9.80;;
61407;SDS011;47274;43.054;25.146;2024-02-21T08:00:48;20.85;;;10.27;;
61407;SDS011;47274;43.054;25.146;2024-02-21T08:03:14;18.42;;;8.88;;
61407;SDS011;47274;43.054;25.146;2024-02-21T08:05:43;18.98;;;9.25;;
61407;SDS011;47274;43.054;25.146;2024-02-21T08:08:09;18.60;;;9.73;;
61407;SDS011;47274;43.054;25.146;2024-02-21T08:10:34;18.60;;;9.25;;
61407;SDS011;47274;43.054;25.146;2024-02-21T08:13:00;18.00;;;9.10;;
61407;SDS011;47274;43.054;25.146;2024-02-21T08:15:26;18.35;;;9.15;;
61407;SDS011;47274;43.054;25.146;2024-02-21T08:17:55;17.85;;;8.93;;
61407;SDS011;47274;43.054;25.146;2024-02-21T08:20:24;20.75;;;10.65;;
61407;SDS011;47274;43.054;25.146;2024-02-21T08:22:51;19.52;;;10.32;;
61407;SDS011;47274;43.054;25.146;2024-02-21T08:25:16;18.95;;;10.05;;
61407;SDS011;47274;43.054;25.146;2024-02-21T08:27:42;20.17;;;10.80;;
61407;SDS011;47274;43.054;25.146;2024-02-21T08:30:08;20.00;;;10.70;;
61407;SDS011;47274;43.054;25.146;2024-02-21T08:32:34;20.35;;;10.73;;
61407;SDS011;47274;43.054;25.146;2024-02-21T08:35:01;23.70;;;11.40;;
61407;SDS011;47274;43.054;25.146;2024-02-21T08:37:27;19.08;;;10.50;;
61407;SDS011;47274;43.054;25.146;2024-02-21T08:39:53;20.48;;;11.35;;
61407;SDS011;47274;43.054;25.146;2024-02-21T08:42:19;20.63;;;11.15;;
61407;SDS011;47274;43.054;25.146;2024-02-21T08:44:45;19.40;;;10.35;;
61407;SDS011;47274;43.054;25.146;2024-02-21T08:47:11;20.95;;;11.15;;
61407;SDS011;47274;43.054;25.146;2024-02-21T08:49:37;22.02;;;11.75;;
61407;SDS011;47274;43.054;25.146;2024-02-21T08:52:03;21.08;;;11.13;;
61407;SDS011;47274;43.054;25.146;2024-02-21T08:54:29;20.90;;;11.48;;
61407;SDS011;47274;43.054;25.146;2024-02-21T08:56:55;19.02;;;9.43;;
61407;SDS011;47274;43.054;25.146;2024-02-21T08:59:22;19.80;;;10.85;;
61407;SDS011;47274;43.054;25.146;2024-02-21T09:01:47;20.08;;;10.52;;
61407;SDS011;47274;43.054;25.146;2024-02-21T09:04:13;20.33;;;10.65;;
61407;SDS011;47274;43.054;25.146;2024-02-21T09:06:39;20.90;;;11.60;;
61407;SDS011;47274;43.054;25.146;2024-02-21T09:09:10;20.33;;;11.07;;
61407;SDS011;47274;43.054;25.146;2024-02-21T09:11:36;19.55;;;10.57;;
61407;SDS011;47274;43.054;25.146;2024-02-21T09:14:02;17.92;;;9.65;;
61407;SDS011;47274;43.054;25.146;2024-02-21T09:16:32;20.73;;;10.57;;
61407;SDS011;47274;43.054;25.146;2024-02-21T09:18:57;19.70;;;10.75;;
61407;SDS011;47274;43.054;25.146;2024-02-21T09:21:23;20.10;;;10.85;;
61407;SDS011;47274;43.054;25.146;2024-02-21T09:23:49;20.65;;;11.27;;
61407;SDS011;47274;43.054;25.146;2024-02-21T09:26:15;21.02;;;11.93;;
61407;SDS011;47274;43.054;25.146;2024-02-21T09:28:44;20.17;;;10.50;;
61407;SDS011;47274;43.054;25.146;2024-02-21T09:31:10;20.13;;;10.88;;
61407;SDS011;47274;43.054;25.146;2024-02-21T09:33:36;22.25;;;12.93;;
61407;SDS011;47274;43.054;25.146;2024-02-21T09:36:02;19.80;;;11.18;;
61407;SDS011;47274;43.054;25.146;2024-02-21T09:38:31;20.23;;;10.77;;
61407;SDS011;47274;43.054;25.146;2024-02-21T09:41:40;20.55;;;10.48;;
61407;SDS011;47274;43.054;25.146;2024-02-21T09:43:55;20.67;;;10.52;;
61407;SDS011;47274;43.054;25.146;2024-02-21T09:46:24;20.23;;;10.55;;
61407;SDS011;47274;43.054;25.146;2024-02-21T09:51:49;18.77;;;10.07;;
61407;SDS011;47274;43.054;25.146;2024-02-21T09:54:19;19.42;;;10.20;;
61407;SDS011;47274;43.054;25.146;2024-02-21T09:56:46;17.40;;;9.75;;
61407;SDS011;47274;43.054;25.146;2024-02-21T09:59:14;19.60;;;9.95;;
61407;SDS011;47274;43.054;25.146;2024-02-21T10:01:41;17.20;;;9.23;;
61407;SDS011;47274;43.054;25.146;2024-02-21T10:04:08;18.20;;;9.45;;
61407;SDS011;47274;43.054;25.146;2024-02-21T10:06:34;17.98;;;9.55;;
61407;SDS011;47274;43.054;25.146;2024-02-21T10:09:02;17.45;;;8.27;;
61407;SDS011;47274;43.054;25.146;2024-02-21T10:11:29;18.00;;;8.80;;
61407;SDS011;47274;43.054;25.146;2024-02-21T10:14:02;17.42;;;8.90;;
61407;SDS011;47274;43.054;25.146;2024-02-21T10:16:31;17.67;;;8.38;;
61407;SDS011;47274;43.054;25.146;2024-02-21T10:18:58;17.23;;;8.82;;
61407;SDS011;47274;43.054;25.146;2024-02-21T10:21:24;17.90;;;8.85;;
61407;SDS011;47274;43.054;25.146;2024-02-21T10:23:50;17.80;;;9.02;;
61407;SDS011;47274;43.054;25.146;2024-02-21T10:26:17;18.10;;;9.52;;
61407;SDS011;47274;43.054;25.146;2024-02-21T10:28:45;17.33;;;8.25;;
61407;SDS011;47274;43.054;25.146;2024-02-21T10:31:22;17.15;;;8.68;;
61407;SDS011;47274;43.054;25.146;2024-02-21T10:33:55;17.83;;;8.95;;
61407;SDS011;47274;43.054;25.146;2024-02-21T10:36:30;17.50;;;8.98;;
61407;SDS011;47274;43.054;25.146;2024-02-21T10:38:56;18.90;;;9.10;;
61407;SDS011;47274;43.054;25.146;2024-02-21T10:41:22;16.85;;;8.20;;
61407;SDS011;47274;43.054;25.146;2024-02-21T10:43:50;16.33;;;8.10;;
61407;SDS011;47274;43.054;25.146;2024-02-21T10:46:20;15.48;;;7.72;;
61407;SDS011;47274;43.054;25.146;2024-02-21T10:48:47;21.10;;;10.30;;
61407;SDS011;47274;43.054;25.146;2024-02-21T10:51:21;17.75;;;8.98;;
61407;SDS011;47274;43.054;25.146;2024-02-21T10:56:39;16.98;;;8.32;;
61407;SDS011;47274;43.054;25.146;2024-02-21T10:59:07;18.45;;;8.57;;
61407;SDS011;47274;43.054;25.146;2024-02-21T11:01:33;16.65;;;8.02;;
61407;SDS011;47274;43.054;25.146;2024-02-21T11:04:04;15.85;;;7.93;;
61407;SDS011;47274;43.054;25.146;2024-02-21T11:06:32;17.67;;;8.48;;
61407;SDS011;47274;43.054;25.146;2024-02-21T11:11:26;14.82;;;7.15;;
61407;SDS011;47274;43.054;25.146;2024-02-21T11:13:51;14.70;;;7.28;;
61407;SDS011;47274;43.054;25.146;2024-02-21T11:16:23;15.70;;;7.40;;
61407;SDS011;47274;43.054;25.146;2024-02-21T11:18:49;13.50;;;6.90;;
61407;SDS011;47274;43.054;25.146;2024-02-21T11:21:15;14.00;;;7.15;;
61407;SDS011;47274;43.054;25.146;2024-02-21T11:23:41;13.52;;;6.85;;
61407;SDS011;47274;43.054;25.146;2024-02-21T11:26:07;13.57;;;7.07;;
61407;SDS011;47274;43.054;25.146;2024-02-21T11:28:33;17.25;;;8.02;;
61407;SDS011;47274;43.054;25.146;2024-02-21T11:31:08;14.10;;;7.28;;
61407;SDS011;47274;43.054;25.146;2024-02-21T11:33:38;15.60;;;7.60;;
61407;SDS011;47274;43.054;25.146;2024-02-21T11:36:05;13.38;;;6.68;;
61407;SDS011;47274;43.054;25.146;2024-02-21T11:38:31;14.63;;;6.72;;
61407;SDS011;47274;43.054;25.146;2024-02-21T11:40:57;13.00;;;7.10;;
61407;SDS011;47274;43.054;25.146;2024-02-21T11:43:23;12.27;;;6.13;;
61407;SDS011;47274;43.054;25.146;2024-02-21T11:45:49;14.70;;;6.75;;
61407;SDS011;47274;43.054;25.146;2024-02-21T11:48:15;10.77;;;6.10;;
61407;SDS011;47274;43.054;25.146;2024-02-21T11:50:41;11.82;;;6.40;;
61407;SDS011;47274;43.054;25.146;2024-02-21T11:53:07;13.50;;;7.40;;
61407;SDS011;47274;43.054;25.146;2024-02-21T11:55:33;13.13;;;6.30;;
61407;SDS011;47274;43.054;25.146;2024-02-21T11:57:59;11.63;;;6.50;;
61407;SDS011;47274;43.054;25.146;2024-02-21T12:00:25;13.20;;;6.95;;
61407;SDS011;47274;43.054;25.146;2024-02-21T12:02:51;12.55;;;6.75;;
61407;SDS011;47274;43.054;25.146;2024-02-21T12:05:18;15.07;;;7.35;;
61407;SDS011;47274;43.054;25.146;2024-02-21T12:07:47;15.05;;;7.38;;
61407;SDS011;47274;43.054;25.146;2024-02-21T12:10:13;19.05;;;10.30;;
61407;SDS011;47274;43.054;25.146;2024-02-21T12:12:39;13.98;;;6.97;;
61407;SDS011;47274;43.054;25.146;2024-02-21T12:15:05;22.60;;;13.15;;
61407;SDS011;47274;43.054;25.146;2024-02-21T12:17:35;18.10;;;9.18;;
61407;SDS011;47274;43.054;25.146;2024-02-21T12:20:02;19.75;;;12.00;;
61407;SDS011;47274;43.054;25.146;2024-02-21T12:22:41;18.92;;;11.48;;
61407;SDS011;47274;43.054;25.146;2024-02-21T12:25:16;14.95;;;7.55;;
61407;SDS011;47274;43.054;25.146;2024-02-21T12:27:48;15.27;;;8.05;;
61407;SDS011;47274;43.054;25.146;2024-02-21T12:30:14;12.93;;;7.28;;
61407;SDS011;47274;43.054;25.146;2024-02-21T12:32:41;13.88;;;7.18;;
61407;SDS011;47274;43.054;25.146;2024-02-21T12:35:06;13.68;;;6.97;;
61407;SDS011;47274;43.054;25.146;2024-02-21T12:37:36;13.63;;;6.70;;
61407;SDS011;47274;43.054;25.146;2024-02-21T12:40:04;11.82;;;6.53;;
61407;SDS011;47274;43.054;25.146;2024-02-21T12:42:32;12.88;;;6.85;;
61407;SDS011;47274;43.054;25.146;2024-02-21T12:44:59;13.80;;;7.47;;
61407;SDS011;47274;43.054;25.146;2024-02-21T12:47:24;23.42;;;8.93;;
61407;SDS011;47274;43.054;25.146;2024-02-21T12:49:52;15.05;;;6.97;;
61407;SDS011;47274;43.054;25.146;2024-02-21T12:52:18;17.45;;;6.68;;
61407;SDS011;47274;43.054;25.146;2024-02-21T12:54:44;12.15;;;5.90;;
61407;SDS011;47274;43.054;25.146;2024-02-21T12:57:10;18.42;;;8.57;;
61407;SDS011;47274;43.054;25.146;2024-02-21T12:59:36;20.70;;;10.18;;
61407;SDS011;47274;43.054;25.146;2024-02-21T13:02:01;20.00;;;9.90;;
61407;SDS011;47274;43.054;25.146;2024-02-21T13:04:27;19.30;;;9.10;;
61407;SDS011;47274;43.054;25.146;2024-02-21T13:06:53;13.40;;;6.78;;
61407;SDS011;47274;43.054;25.146;2024-02-21T13:09:20;12.38;;;6.20;;
61407;SDS011;47274;43.054;25.146;2024-02-21T13:11:46;14.70;;;6.70;;
61407;SDS011;47274;43.054;25.146;2024-02-21T13:14:12;19.08;;;8.55;;
61407;SDS011;47274;43.054;25.146;2024-02-21T13:16:38;14.82;;;6.75;;
61407;SDS011;47274;43.054;25.146;2024-02-21T13:19:06;14.38;;;6.50;;
61407;SDS011;47274;43.054;25.146;2024-02-21T13:21:35;11.07;;;5.20;;
61407;SDS011;47274;43.054;25.146;2024-02-21T13:24:02;12.88;;;6.50;;
61407;SDS011;47274;43.054;25.146;2024-02-21T13:26:28;12.05;;;6.18;;
61407;SDS011;47274;43.054;25.146;2024-02-21T13:28:54;8.82;;;5.05;;
61407;SDS011;47274;43.054;25.146;2024-02-21T13:31:20;9.57;;;4.55;;
61407;SDS011;47274;43.054;25.146;2024-02-21T13:33:46;9.68;;;5.60;;
61407;SDS011;47274;43.054;25.146;2024-02-21T13:36:12;10.45;;;5.15;;
61407;SDS011;47274;43.054;25.146;2024-02-21T13:38:38;9.38;;;5.10;;
61407;SDS011;47274;43.054;25.146;2024-02-21T13:41:06;13.23;;;6.53;;
61407;SDS011;47274;43.054;25.146;2024-02-21T13:43:32;17.27;;;8.50;;
61407;SDS011;47274;43.054;25.146;2024-02-21T13:45:59;16.75;;;7.88;;
61407;SDS011;47274;43.054;25.146;2024-02-21T13:48:28;10.85;;;5.35;;
61407;SDS011;47274;43.054;25.146;2024-02-21T13:50:54;11.55;;;5.35;;
61407;SDS011;47274;43.054;25.146;2024-02-21T13:53:21;7.22;;;4.13;;
61407;SDS011;47274;43.054;25.146;2024-02-21T13:55:48;22.13;;;10.65;;
61407;SDS011;47274;43.054;25.146;2024-02-21T13:58:15;61.95;;;36.60;;
61407;SDS011;47274;43.054;25.146;2024-02-21T14:00:41;18.20;;;7.88;;
61407;SDS011;47274;43.054;25.146;2024-02-21T14:03:07;22.33;;;10.95;;
61407;SDS011;47274;43.054;25.146;2024-02-21T14:05:32;19.30;;;7.93;;
61407;SDS011;47274;43.054;25.146;2024-02-21T14:07:58;16.10;;;6.93;;
61407;SDS011;47274;43.054;25.146;2024-02-21T14:10:24;15.18;;;6.38;;
61407;SDS011;47274;43.054;25.146;2024-02-21T14:12:49;14.50;;;6.68;;
61407;SDS011;47274;43.054;25.146;2024-02-21T14:15:15;13.23;;;6.25;;
61407;SDS011;47274;43.054;25.146;2024-02-21T14:17:44;15.02;;;6.18;;
61407;SDS011;47274;43.054;25.146;2024-02-21T14:20:09;12.52;;;5.65;;
61407;SDS011;47274;43.054;25.146;2024-02-21T14:22:35;12.35;;;5.63;;